Time;durP1;ratioP1;P1;durP2;ratioP2;P2;SDS_P1;SDS_P2;PMS_P1;PMS_P2;Temp;Humidity;BMP_temperature;BMP_pressure;BME280_temperature;BME280_humidity;BME280_pressure;Samples;Min_cycle;Max_cycle;Signal;HPM_P1;HPM_P2
2023/10/06 00:01:42;;;;;;;13.15;3.10;;;14.20;99.90;;;;;;5044469;28;20045;-77
2023/10/06 00:04:15;;;;;;;16.63;3.67;;;14.10;99.90;;;;;;5041824;28;20114;-76
2023/10/06 00:06:42;;;;;;;16.70;3.72;;;14.10;99.90;;;;;;5023967;28;20121;-77
2023/10/06 00:09:09;;;;;;;13.93;4.22;;;14.10;99.90;;;;;;5026789;28;20079;-77
2023/10/06 00:11:40;;;;;;;10.18;3.30;;;14.20;99.90;;;;;;5044456;28;20056;-77
2023/10/06 00:14:07;;;;;;;10.60;3.25;;;14.10;99.90;;;;;;5023678;28;20057;-75
2023/10/06 00:16:39;;;;;;;12.15;3.75;;;14.10;99.90;;;;;;5023303;28;20090;-76
2023/10/06 00:19:26;;;;;;;12.73;4.00;;;14.10;99.90;;;;;;5043179;28;20990;-79
2023/10/06 00:22:09;;;;;;;9.35;3.15;;;14.10;99.90;;;;;;5026221;28;20155;-77
2023/10/06 00:24:42;;;;;;;8.95;3.33;;;14.10;99.90;;;;;;5046450;28;20074;-78
2023/10/06 00:27:11;;;;;;;13.23;3.78;;;14.10;99.90;;;;;;5042963;28;20053;-77
2023/10/06 00:29:38;;;;;;;10.38;3.67;;;14.20;99.90;;;;;;5022851;28;20045;-77
2023/10/06 00:32:21;;;;;;;11.95;3.55;;;14.10;99.90;;;;;;5023113;28;20049;-77
2023/10/06 00:34:48;;;;;;;13.77;4.40;;;14.10;99.90;;;;;;5026212;28;20051;-77
2023/10/06 00:37:15;;;;;;;12.50;3.35;;;14.10;99.90;;;;;;5017622;28;20497;-78
2023/10/06 00:39:42;;;;;;;13.32;3.45;;;14.10;99.90;;;;;;5044332;28;20044;-78
2023/10/06 00:42:08;;;;;;;12.20;3.47;;;14.10;99.90;;;;;;5044129;28;20045;-78
2023/10/06 00:44:35;;;;;;;12.13;3.40;;;14.10;99.90;;;;;;5023135;28;20132;-78
2023/10/06 00:47:05;;;;;;;12.68;3.50;;;14.10;99.90;;;;;;5023040;28;20096;-78
2023/10/06 00:49:32;;;;;;;13.27;3.45;;;14.10;99.90;;;;;;5024108;28;20056;-77
2023/10/06 00:51:59;;;;;;;9.32;3.35;;;14.10;99.90;;;;;;5025524;28;20175;-77
2023/10/06 00:54:26;;;;;;;12.00;3.97;;;14.10;99.90;;;;;;5025630;28;20079;-77
2023/10/06 00:56:57;;;;;;;9.02;3.85;;;14.20;99.90;;;;;;5033208;28;20716;-79
2023/10/06 00:59:24;;;;;;;15.43;4.38;;;14.20;99.90;;;;;;5026572;28;20053;-77
2023/10/06 01:01:50;;;;;;;13.32;4.00;;;14.20;99.90;;;;;;5042256;28;20128;-78
2023/10/06 01:04:18;;;;;;;12.98;3.80;;;14.20;99.90;;;;;;5043471;28;20064;-76
2023/10/06 01:06:43;;;;;;;12.88;4.07;;;14.20;99.90;;;;;;5025000;28;20385;-77
2023/10/06 01:09:16;;;;;;;8.75;3.22;;;14.10;99.90;;;;;;5040587;28;20053;-79
2023/10/06 01:11:51;;;;;;;12.52;3.88;;;14.20;99.90;;;;;;5022833;28;20053;-79
2023/10/06 01:14:26;;;;;;;14.95;4.05;;;14.20;99.90;;;;;;5026687;28;20156;-77
2023/10/06 01:16:55;;;;;;;13.77;3.92;;;14.20;99.90;;;;;;5043059;28;20045;-78
2023/10/06 01:21:56;;;;;;;12.02;4.10;;;14.20;99.90;;;;;;5040045;28;20050;-78
2023/10/06 01:24:27;;;;;;;17.05;4.32;;;14.20;99.90;;;;;;5025874;28;20057;-77
2023/10/06 01:27:07;;;;;;;11.57;4.03;;;14.20;99.90;;;;;;5025344;28;20049;-77
2023/10/06 01:29:35;;;;;;;14.90;4.15;;;14.30;99.90;;;;;;5044418;28;20044;-77
2023/10/06 01:32:05;;;;;;;14.43;4.25;;;14.30;99.90;;;;;;5043130;28;20047;-78
2023/10/06 01:34:38;;;;;;;13.95;4.25;;;14.20;99.90;;;;;;5051606;28;20054;-78
2023/10/06 01:37:09;;;;;;;11.02;4.43;;;14.30;99.90;;;;;;5025139;28;20124;-77
2023/10/06 01:39:35;;;;;;;14.07;4.07;;;14.30;99.90;;;;;;5025406;28;20388;-77
2023/10/06 01:42:08;;;;;;;19.20;5.20;;;14.30;99.90;;;;;;5041077;28;20056;-76
2023/10/06 01:44:36;;;;;;;12.63;4.80;;;14.30;99.90;;;;;;5022331;28;20049;-76
2023/10/06 01:47:04;;;;;;;14.00;4.38;;;14.30;99.90;;;;;;5021689;28;20127;-76
2023/10/06 01:49:31;;;;;;;15.07;5.25;;;14.30;99.90;;;;;;5023067;28;20049;-77
2023/10/06 01:51:56;;;;;;;18.95;5.45;;;14.30;99.90;;;;;;5042810;28;20491;-78
2023/10/06 01:54:26;;;;;;;15.80;5.15;;;14.40;99.90;;;;;;5024623;28;20052;-77
2023/10/06 01:56:54;;;;;;;12.45;5.35;;;14.40;99.90;;;;;;5033097;28;20053;-77
2023/10/06 01:59:20;;;;;;;16.33;5.82;;;14.40;99.90;;;;;;5024869;28;20044;-79
2023/10/06 02:01:47;;;;;;;15.88;5.80;;;14.40;99.90;;;;;;5042343;28;20053;-77
2023/10/06 02:04:16;;;;;;;13.60;5.47;;;14.30;99.90;;;;;;5042758;28;20454;-78
2023/10/06 02:06:45;;;;;;;19.02;5.63;;;14.50;99.90;;;;;;5024207;28;20052;-78
2023/10/06 02:09:25;;;;;;;15.55;5.55;;;14.30;99.90;;;;;;5022027;28;20038;-77
2023/10/06 02:11:51;;;;;;;14.77;6.57;;;14.40;99.90;;;;;;5040690;28;20109;-77
2023/10/06 02:14:17;;;;;;;15.48;6.50;;;14.40;99.90;;;;;;5042752;28;20139;-77
2023/10/06 02:16:48;;;;;;;22.60;7.18;;;14.40;99.90;;;;;;5042508;28;20523;-76
2023/10/06 02:19:17;;;;;;;16.67;6.35;;;14.40;99.90;;;;;;5029943;28;20444;-78
2023/10/06 02:21:46;;;;;;;18.85;5.97;;;14.40;99.90;;;;;;5021018;28;20045;-77
2023/10/06 02:24:12;;;;;;;18.98;6.47;;;14.40;99.90;;;;;;5023353;28;20057;-78
2023/10/06 02:26:38;;;;;;;18.85;7.10;;;14.40;99.90;;;;;;5024125;28;20099;-76
2023/10/06 02:29:24;;;;;;;16.73;6.10;;;14.40;99.90;;;;;;5041460;28;20033;-77
2023/10/06 02:32:06;;;;;;;15.90;6.32;;;14.40;99.90;;;;;;5024354;28;20037;-79
2023/10/06 02:34:35;;;;;;;23.60;6.80;;;14.40;99.90;;;;;;5050502;28;20059;-80
2023/10/06 02:37:08;;;;;;;16.27;6.15;;;14.30;99.90;;;;;;5042289;28;20407;-78
2023/10/06 02:39:34;;;;;;;18.08;6.78;;;14.30;99.90;;;;;;5032221;28;20040;-79
2023/10/06 02:42:02;;;;;;;16.63;6.28;;;14.40;99.90;;;;;;5041865;28;20043;-77
2023/10/06 02:44:29;;;;;;;12.80;6.22;;;14.30;99.90;;;;;;5039863;28;20067;-77
2023/10/06 02:46:55;;;;;;;12.90;6.15;;;14.40;99.90;;;;;;5020122;28;20050;-78
2023/10/06 02:49:35;;;;;;;16.42;6.10;;;14.30;99.90;;;;;;5038461;28;20103;-78
2023/10/06 02:52:16;;;;;;;17.23;6.18;;;14.30;99.90;;;;;;5041898;28;20140;-79
2023/10/06 02:54:46;;;;;;;19.20;7.00;;;14.30;99.90;;;;;;5021117;28;20048;-78
2023/10/06 02:57:12;;;;;;;22.85;6.30;;;14.30;99.90;;;;;;5020272;28;20131;-78
2023/10/06 02:59:37;;;;;;;14.52;6.60;;;14.20;99.90;;;;;;5021379;28;20095;-80
2023/10/06 03:02:15;;;;;;;17.05;6.75;;;14.20;99.90;;;;;;5023685;28;20055;-79
2023/10/06 03:04:43;;;;;;;14.80;6.60;;;14.20;99.90;;;;;;5040713;28;20083;-78
2023/10/06 03:07:15;;;;;;;13.85;6.90;;;14.20;99.90;;;;;;5038302;28;20136;-78
2023/10/06 03:09:47;;;;;;;18.42;8.00;;;14.20;99.90;;;;;;5038325;28;20400;-78
2023/10/06 03:14:48;;;;;;;22.50;7.45;;;14.20;99.90;;;;;;5022889;28;20068;-79
2023/10/06 03:17:14;;;;;;;17.98;7.55;;;14.20;99.90;;;;;;5019824;28;20045;-79
2023/10/06 03:19:44;;;;;;;14.77;7.88;;;14.10;99.90;;;;;;5019746;28;20456;-78
2023/10/06 03:22:12;;;;;;;17.27;8.18;;;14.10;99.90;;;;;;5040371;28;20057;-78
2023/10/06 03:24:58;;;;;;;19.67;8.32;;;14.20;99.90;;;;;;5041123;28;20051;-79
2023/10/06 03:27:24;;;;;;;22.40;8.15;;;14.10;99.90;;;;;;5023869;28;20437;-78
2023/10/06 03:29:55;;;;;;;15.45;7.88;;;14.10;99.90;;;;;;5031295;28;20068;-77
2023/10/06 03:32:32;;;;;;;24.10;9.15;;;14.10;99.90;;;;;;5038368;28;20167;-77
2023/10/06 03:36:01;;;;;;;19.10;8.60;;;14.10;99.90;;;;;;5020461;28;20428;-80
2023/10/06 03:38:13;;;;;;;19.13;8.55;;;14.00;99.90;;;;;;5035452;28;20052;-78
2023/10/06 03:46:10;;;;;;;21.35;9.35;;;14.00;99.90;;;;;;5037877;28;20678;-77
2023/10/06 03:48:38;;;;;;;21.30;10.52;;;14.10;99.90;;;;;;5022135;28;20544;-78
2023/10/06 03:51:05;;;;;;;27.17;10.57;;;14.10;99.90;;;;;;5023397;28;20040;-78
2023/10/06 03:53:31;;;;;;;23.67;10.75;;;14.00;99.90;;;;;;5021836;28;20131;-78
2023/10/06 03:55:57;;;;;;;23.25;8.82;;;14.00;99.90;;;;;;5037799;28;20688;-79
2023/10/06 03:58:28;;;;;;;18.25;9.73;;;14.00;99.90;;;;;;5019910;28;20451;-77
2023/10/06 04:00:54;;;;;;;22.35;10.27;;;14.00;99.90;;;;;;5027983;28;20038;-77
2023/10/06 04:03:21;;;;;;;21.92;9.68;;;14.00;99.90;;;;;;5037509;28;20049;-78
2023/10/06 04:05:51;;;;;;;21.95;9.93;;;14.00;99.90;;;;;;5039336;28;20095;-78
2023/10/06 04:08:22;;;;;;;22.92;10.48;;;14.00;99.90;;;;;;5040742;28;20476;-78
2023/10/06 04:10:51;;;;;;;18.48;10.02;;;14.00;99.90;;;;;;5039828;28;20146;-80
2023/10/06 04:13:20;;;;;;;25.30;11.18;;;13.90;99.90;;;;;;5019964;28;20057;-77
2023/10/06 04:15:49;;;;;;;18.88;10.00;;;13.90;99.90;;;;;;5020078;28;20049;-78
2023/10/06 04:18:18;;;;;;;23.92;10.07;;;13.90;99.90;;;;;;5040478;28;20040;-77
2023/10/06 04:20:48;;;;;;;22.73;9.60;;;14.00;99.90;;;;;;5022642;28;20099;-78
2023/10/06 04:23:16;;;;;;;21.60;9.88;;;13.90;99.90;;;;;;5019554;28;20124;-77
2023/10/06 04:25:42;;;;;;;16.70;9.15;;;13.90;99.90;;;;;;5037252;28;20787;-76
2023/10/06 04:28:14;;;;;;;20.02;9.30;;;13.90;99.90;;;;;;5021037;28;20114;-77
2023/10/06 04:30:44;;;;;;;24.63;8.95;;;13.90;99.90;;;;;;5041916;28;20427;-79
2023/10/06 04:33:15;;;;;;;24.35;9.20;;;13.90;99.90;;;;;;5024885;28;20052;-78
2023/10/06 04:35:47;;;;;;;22.48;8.95;;;14.00;99.90;;;;;;5022943;28;20095;-78
2023/10/06 04:38:13;;;;;;;24.15;9.10;;;14.00;99.90;;;;;;5024114;28;20064;-77
2023/10/06 04:40:43;;;;;;;22.35;8.40;;;14.00;99.90;;;;;;5026468;28;20098;-77
2023/10/06 04:43:09;;;;;;;18.02;8.23;;;14.00;99.90;;;;;;5026151;28;20156;-76
2023/10/06 04:45:38;;;;;;;16.25;8.32;;;13.90;99.90;;;;;;5022955;28;20053;-78
2023/10/06 04:48:07;;;;;;;21.35;8.57;;;14.00;99.90;;;;;;5022668;28;20053;-77
2023/10/06 04:50:34;;;;;;;20.55;7.97;;;14.00;99.90;;;;;;5042514;28;20096;-79
2023/10/06 04:53:00;;;;;;;19.60;7.65;;;14.00;99.90;;;;;;5043499;28;20037;-79
2023/10/06 04:55:26;;;;;;;20.58;8.77;;;14.00;99.90;;;;;;5025625;28;20127;-79
2023/10/06 04:57:52;;;;;;;16.35;7.82;;;14.00;99.90;;;;;;5040356;28;20043;-80
2023/10/06 05:00:22;;;;;;;19.58;7.63;;;14.00;99.90;;;;;;5040308;28;20045;-77
2023/10/06 05:02:50;;;;;;;22.10;7.82;;;14.00;99.90;;;;;;5023255;28;20614;-77
2023/10/06 05:05:23;;;;;;;21.10;7.65;;;14.00;99.90;;;;;;5023149;28;20042;-78
2023/10/06 05:07:49;;;;;;;21.40;8.18;;;14.00;99.90;;;;;;5041472;28;20044;-76
2023/10/06 05:10:21;;;;;;;22.80;7.40;;;14.00;99.90;;;;;;5023675;28;20045;-79
2023/10/06 05:12:47;;;;;;;25.70;7.78;;;14.00;99.90;;;;;;5042870;28;20053;-77
2023/10/06 05:15:23;;;;;;;15.85;7.32;;;14.00;99.90;;;;;;5042317;28;20048;-77
2023/10/06 05:17:55;;;;;;;13.18;7.53;;;14.00;99.90;;;;;;5026712;28;20060;-78
2023/10/06 05:20:23;;;;;;;20.48;6.85;;;14.00;99.90;;;;;;5039740;28;20524;-79
2023/10/06 05:22:50;;;;;;;22.77;8.15;;;14.00;99.90;;;;;;5041973;28;20080;-77
2023/10/06 05:25:19;;;;;;;16.05;7.43;;;14.00;99.90;;;;;;5025412;28;20052;-78
2023/10/06 05:27:46;;;;;;;19.08;7.10;;;14.00;99.90;;;;;;5042288;28;20049;-77
2023/10/06 05:30:13;;;;;;;15.55;6.80;;;13.90;99.90;;;;;;5023050;28;20053;-77
2023/10/06 05:32:42;;;;;;;16.90;6.68;;;13.90;99.90;;;;;;5047350;28;20041;-77
2023/10/06 05:35:10;;;;;;;20.15;6.78;;;14.00;99.90;;;;;;5039703;28;20622;-78
2023/10/06 05:37:36;;;;;;;22.50;7.40;;;13.90;99.90;;;;;;5022464;28;20045;-78
2023/10/06 05:40:02;;;;;;;17.38;6.78;;;13.90;99.90;;;;;;5023647;28;20079;-80
2023/10/06 05:42:29;;;;;;;27.48;7.40;;;13.90;99.90;;;;;;5024629;28;20088;-78
2023/10/06 05:44:55;;;;;;;19.05;7.05;;;14.00;99.90;;;;;;5023972;28;20098;-81
2023/10/06 05:47:21;;;;;;;16.92;6.65;;;13.90;99.90;;;;;;5024866;28;20045;-77
2023/10/06 05:49:49;;;;;;;23.00;8.38;;;14.00;99.90;;;;;;5024838;28;20048;-78
2023/10/06 05:52:16;;;;;;;18.60;6.93;;;13.90;99.90;;;;;;5023117;28;20059;-80
2023/10/06 05:54:42;;;;;;;15.55;7.53;;;13.90;99.90;;;;;;5021855;28;20516;-77
2023/10/06 05:57:09;;;;;;;18.10;6.75;;;13.90;99.90;;;;;;5039467;28;20060;-78
2023/10/06 05:59:36;;;;;;;16.30;7.07;;;14.00;99.90;;;;;;5025307;28;20456;-79
2023/10/06 06:02:04;;;;;;;15.25;7.30;;;14.00;99.90;;;;;;5024981;28;20051;-78
2023/10/06 06:04:30;;;;;;;18.10;7.03;;;14.00;99.90;;;;;;5040485;28;20142;-78
2023/10/06 06:06:57;;;;;;;17.85;7.47;;;14.00;99.90;;;;;;5021414;28;21056;-78
2023/10/06 06:09:33;;;;;;;17.17;6.88;;;14.00;99.90;;;;;;5022515;28;20049;-77
2023/10/06 06:12:00;;;;;;;17.10;7.63;;;14.00;99.90;;;;;;5034485;28;20467;-78
2023/10/06 06:14:26;;;;;;;17.55;7.30;;;14.00;99.90;;;;;;5050708;28;20163;-79
2023/10/06 06:16:52;;;;;;;16.58;7.20;;;14.00;99.90;;;;;;5021037;28;20045;-78
2023/10/06 06:19:18;;;;;;;17.35;7.22;;;14.10;99.90;;;;;;5039053;28;20053;-80
2023/10/06 06:21:45;;;;;;;17.92;7.15;;;14.10;99.90;;;;;;5022229;28;20047;-81
2023/10/06 06:24:10;;;;;;;21.45;7.15;;;14.10;99.90;;;;;;5024372;28;20053;-78
2023/10/06 06:26:37;;;;;;;17.63;6.97;;;14.10;99.90;;;;;;5024045;28;20049;-78
2023/10/06 06:29:08;;;;;;;16.95;7.18;;;14.10;99.90;;;;;;5021496;28;20667;-78
2023/10/06 06:31:34;;;;;;;13.00;6.18;;;14.10;99.90;;;;;;5039284;28;20049;-78
2023/10/06 06:34:04;;;;;;;15.30;7.15;;;14.10;99.90;;;;;;5040653;28;20099;-79
2023/10/06 06:36:31;;;;;;;19.77;6.82;;;14.10;99.90;;;;;;5041707;28;20045;-76
2023/10/06 06:38:58;;;;;;;17.30;6.30;;;14.10;99.90;;;;;;5023264;28;20128;-79
2023/10/06 06:41:24;;;;;;;12.70;6.60;;;14.20;99.90;;;;;;5021344;28;20053;-77
2023/10/06 06:43:55;;;;;;;17.98;7.32;;;14.20;99.90;;;;;;5039574;28;20034;-79
2023/10/06 06:46:21;;;;;;;15.25;7.03;;;14.20;99.90;;;;;;5023725;28;20049;-80
2023/10/06 06:48:46;;;;;;;13.57;6.40;;;14.20;99.90;;;;;;5032741;28;20072;-78
2023/10/06 06:51:12;;;;;;;15.20;7.57;;;14.30;99.90;;;;;;5040488;28;20579;-77
2023/10/06 06:53:41;;;;;;;16.17;6.50;;;14.30;99.90;;;;;;5037740;28;20396;-78
2023/10/06 06:56:10;;;;;;;15.40;7.13;;;14.30;99.90;;;;;;5020557;28;20132;-77
2023/10/06 06:58:37;;;;;;;21.02;7.47;;;14.30;99.90;;;;;;5024231;28;20037;-78
2023/10/06 07:01:05;;;;;;;15.73;7.30;;;14.30;99.90;;;;;;5023207;28;20052;-77
2023/10/06 07:03:31;;;;;;;20.40;7.15;;;14.40;99.90;;;;;;5039015;28;20060;-79
2023/10/06 07:05:57;;;;;;;19.50;7.10;;;14.30;99.90;;;;;;5038578;28;20045;-77
2023/10/06 07:08:24;;;;;;;19.63;7.05;;;14.40;99.90;;;;;;5038764;28;20041;-78
2023/10/06 07:10:53;;;;;;;16.17;7.25;;;14.40;99.90;;;;;;5041297;28;20067;-79
2023/10/06 07:13:22;;;;;;;19.85;7.25;;;14.40;99.90;;;;;;5023366;28;20057;-76
2023/10/06 07:15:51;;;;;;;19.08;7.15;;;14.40;99.90;;;;;;5038103;28;20049;-78
2023/10/06 07:18:19;;;;;;;20.67;7.53;;;14.50;99.90;;;;;;5026644;28;20102;-79
2023/10/06 07:20:44;;;;;;;12.20;6.32;;;14.50;99.90;;;;;;5012797;28;20065;-76
2023/10/06 07:23:11;;;;;;;19.98;7.72;;;14.50;99.90;;;;;;5037826;28;20049;-77
2023/10/06 07:25:37;;;;;;;34.83;8.05;;;14.50;99.90;;;;;;5038093;28;20068;-78
2023/10/06 07:28:06;;;;;;;23.55;7.45;;;14.50;99.90;;;;;;5023179;28;20407;-80
2023/10/06 07:30:34;;;;;;;19.75;7.68;;;14.50;99.90;;;;;;5039824;28;20079;-79
2023/10/06 07:33:02;;;;;;;20.40;7.45;;;14.60;99.90;;;;;;5038509;28;20186;-78
2023/10/06 07:35:37;;;;;;;18.58;7.60;;;14.60;99.90;;;;;;5037931;28;20460;-77
2023/10/06 07:38:03;;;;;;;19.17;7.40;;;14.70;99.90;;;;;;5039427;28;20048;-79
2023/10/06 07:40:29;;;;;;;19.65;7.63;;;14.70;99.90;;;;;;5041444;28;20116;-78
2023/10/06 07:42:55;;;;;;;21.95;7.80;;;14.70;99.90;;;;;;5023389;28;20448;-77
2023/10/06 07:45:21;;;;;;;21.00;8.13;;;14.70;99.90;;;;;;5037757;28;20057;-78
2023/10/06 07:47:47;;;;;;;15.13;7.13;;;14.80;99.90;;;;;;5038015;28;20045;-78
2023/10/06 07:50:14;;;;;;;21.52;8.63;;;14.80;99.90;;;;;;5039316;28;20052;-79
2023/10/06 07:52:41;;;;;;;21.55;9.70;;;14.70;99.90;;;;;;5022887;28;20545;-77
2023/10/06 07:55:09;;;;;;;17.70;7.88;;;14.80;99.90;;;;;;5040652;28;20044;-79
2023/10/06 07:57:37;;;;;;;24.05;8.48;;;14.80;99.90;;;;;;5038040;28;20374;-77
2023/10/06 08:00:06;;;;;;;21.55;8.02;;;14.80;99.90;;;;;;5037761;28;20041;-77
2023/10/06 08:02:39;;;;;;;19.98;7.97;;;14.90;99.90;;;;;;5040566;28;20136;-79
2023/10/06 08:05:12;;;;;;;19.83;9.00;;;14.90;99.90;;;;;;5043073;28;20059;-79
2023/10/06 08:07:44;;;;;;;19.25;8.13;;;15.00;99.90;;;;;;5041897;28;20574;-78
2023/10/06 08:10:13;;;;;;;19.90;8.25;;;15.00;99.90;;;;;;5023725;28;20045;-79
2023/10/06 08:12:50;;;;;;;19.48;8.38;;;15.10;99.90;;;;;;5043811;28;20041;-79
2023/10/06 08:15:17;;;;;;;21.73;8.50;;;15.20;99.90;;;;;;5020000;28;20121;-78
2023/10/06 08:17:53;;;;;;;20.23;8.30;;;15.30;99.90;;;;;;5026048;28;20162;-78
2023/10/06 08:20:20;;;;;;;18.45;8.23;;;15.30;99.90;;;;;;5044806;28;20048;-81
2023/10/06 08:22:49;;;;;;;23.52;8.48;;;15.40;99.90;;;;;;5042764;28;20134;-79
2023/10/06 08:25:15;;;;;;;18.75;7.80;;;15.50;99.90;;;;;;5041308;28;20208;-79
2023/10/06 08:27:42;;;;;;;20.20;7.70;;;15.50;99.90;;;;;;5013030;28;20085;-77
2023/10/06 08:30:16;;;;;;;23.52;8.23;;;15.50;99.90;;;;;;5031079;28;20060;-77
2023/10/06 08:32:49;;;;;;;19.60;7.95;;;15.60;99.90;;;;;;5041444;28;20049;-79
2023/10/06 08:35:15;;;;;;;18.67;7.30;;;15.70;99.90;;;;;;5045391;28;20041;-78
2023/10/06 08:37:47;;;;;;;24.48;8.35;;;15.80;99.90;;;;;;5044164;28;20488;-80
2023/10/06 08:40:17;;;;;;;21.48;7.95;;;15.80;99.90;;;;;;5026443;28;20044;-79
2023/10/06 08:42:51;;;;;;;20.52;7.68;;;15.90;99.90;;;;;;5044176;28;20049;-80
2023/10/06 08:45:21;;;;;;;23.00;8.00;;;15.90;99.90;;;;;;5040482;28;20521;-80
2023/10/06 08:48:01;;;;;;;21.20;7.82;;;16.00;99.90;;;;;;5023062;28;20060;-79
2023/10/06 08:50:31;;;;;;;21.30;7.22;;;16.10;99.90;;;;;;5044494;28;20114;-80
2023/10/06 08:52:59;;;;;;;21.95;7.05;;;16.10;99.90;;;;;;5044612;28;20576;-80
2023/10/06 08:55:27;;;;;;;22.00;7.47;;;16.20;99.90;;;;;;5043025;28;20044;-82
2023/10/06 08:57:54;;;;;;;25.95;6.57;;;16.30;99.90;;;;;;5043892;28;20041;-79
2023/10/06 09:00:23;;;;;;;18.00;6.88;;;16.30;99.90;;;;;;5042275;28;20395;-81
2023/10/06 09:02:51;;;;;;;25.17;6.45;;;16.40;99.90;;;;;;5040598;28;20053;-81
2023/10/06 09:05:18;;;;;;;21.88;7.22;;;16.40;99.90;;;;;;5040833;28;20045;-78
2023/10/06 09:08:09;;;;;;;18.67;6.50;;;16.50;99.90;;;;;;5025553;28;20041;-76
2023/10/06 09:10:40;;;;;;;20.50;6.38;;;16.50;99.90;;;;;;5018085;28;20056;-78
2023/10/06 09:13:16;;;;;;;18.42;6.38;;;16.60;99.90;;;;;;5028120;28;20041;-77
2023/10/06 09:15:43;;;;;;;19.83;6.65;;;16.60;99.90;;;;;;5041780;28;20050;-78
2023/10/06 09:18:21;;;;;;;16.48;5.95;;;16.60;99.90;;;;;;5025281;28;20122;-79
2023/10/06 09:20:49;;;;;;;22.88;6.15;;;16.70;99.90;;;;;;5022716;28;20049;-78
2023/10/06 09:23:34;;;;;;;18.70;5.22;;;16.70;99.90;;;;;;5022528;28;20522;-77
2023/10/06 09:26:01;;;;;;;22.75;6.30;;;16.70;99.90;;;;;;5025328;28;20056;-78
2023/10/06 09:28:28;;;;;;;18.23;6.00;;;16.70;99.90;;;;;;5051636;28;20087;-77
2023/10/06 09:31:01;;;;;;;18.42;5.75;;;16.80;99.90;;;;;;5041046;28;20088;-76
2023/10/06 09:33:40;;;;;;;15.13;5.40;;;16.80;99.90;;;;;;5022188;28;20373;-81
2023/10/06 09:36:16;;;;;;;18.63;5.78;;;16.80;99.90;;;;;;5024765;28;20127;-80
2023/10/06 09:38:44;;;;;;;15.18;5.88;;;16.80;99.90;;;;;;5024802;28;20060;-82
2023/10/06 09:41:11;;;;;;;20.10;5.55;;;16.80;99.90;;;;;;5024814;28;20048;-78
2023/10/06 09:43:38;;;;;;;19.50;5.25;;;16.90;99.90;;;;;;5024263;28;20087;-80
2023/10/06 09:46:11;;;;;;;16.55;5.82;;;16.90;99.90;;;;;;5041304;28;20053;-79
2023/10/06 09:48:38;;;;;;;20.98;6.40;;;16.90;99.90;;;;;;5021566;28;20679;-78
2023/10/06 09:51:06;;;;;;;21.35;6.45;;;16.90;99.90;;;;;;5005763;28;20045;-78
2023/10/06 09:53:38;;;;;;;18.63;5.18;;;17.00;99.90;;;;;;5042285;28;20495;-78
2023/10/06 09:56:06;;;;;;;19.95;5.53;;;17.00;99.90;;;;;;5007707;28;20033;-80
2023/10/06 09:58:32;;;;;;;15.13;5.05;;;17.10;99.90;;;;;;5039278;28;20038;-79
2023/10/06 10:01:00;;;;;;;16.83;5.68;;;17.20;99.90;;;;;;5021625;28;20452;-77
2023/10/06 10:03:27;;;;;;;18.83;5.22;;;17.20;99.90;;;;;;5006856;28;20049;-76
2023/10/06 10:05:53;;;;;;;16.05;5.25;;;17.30;99.90;;;;;;5007748;28;20151;-78
2023/10/06 10:08:22;;;;;;;21.10;6.03;;;17.40;99.90;;;;;;5023798;28;20399;-77
2023/10/06 10:10:52;;;;;;;19.88;5.70;;;17.50;99.90;;;;;;5021259;28;20049;-77
2023/10/06 10:13:37;;;;;;;21.45;5.15;;;17.50;99.90;;;;;;5039045;28;20077;-76
2023/10/06 10:16:29;;;;;;;19.85;5.40;;;17.50;99.90;;;;;;5026768;28;20040;-78
2023/10/06 10:19:13;;;;;;;18.92;5.68;;;17.50;99.90;;;;;;5024899;28;20041;-81
2023/10/06 10:21:41;;;;;;;20.63;5.50;;;17.50;99.90;;;;;;5022794;28;20057;-77
2023/10/06 10:24:12;;;;;;;21.10;4.07;;;17.50;99.90;;;;;;5021304;28;20405;-78
2023/10/06 10:26:39;;;;;;;18.63;4.78;;;17.50;99.90;;;;;;5004789;28;20451;-77
2023/10/06 10:29:17;;;;;;;20.45;5.20;;;17.50;99.90;;;;;;5023953;28;20500;-80
2023/10/06 10:31:56;;;;;;;18.40;5.10;;;17.60;99.90;;;;;;5023455;28;20068;-76
2023/10/06 10:34:22;;;;;;;13.75;4.65;;;17.70;99.90;;;;;;5038835;28;20111;-78
2023/10/06 10:36:48;;;;;;;17.15;5.18;;;17.80;99.90;;;;;;5021359;28;20097;-77
2023/10/06 10:39:18;;;;;;;20.48;4.80;;;17.90;99.90;;;;;;5024138;28;20365;-79
2023/10/06 10:41:45;;;;;;;18.75;4.93;;;18.00;99.90;;;;;;5041103;28;20052;-78
2023/10/06 10:44:12;;;;;;;16.50;4.72;;;18.00;99.90;;;;;;5021141;28;20060;-78
2023/10/06 10:46:49;;;;;;;18.67;5.35;;;18.10;99.90;;;;;;5038425;28;20124;-78
2023/10/06 11:01:27;;;;;;;12.80;4.30;;;18.40;99.90;;;;;;5127943;27;20165;-79
2023/10/06 11:04:18;;;;;;;20.92;4.75;;;18.40;99.90;;;;;;5109821;28;20058;-80
2023/10/06 11:06:48;;;;;;;18.45;4.55;;;18.60;99.90;;;;;;5101802;28;20051;-78
2023/10/06 11:09:26;;;;;;;22.13;4.75;;;18.60;99.90;;;;;;5126799;28;20066;-80
2023/10/06 11:11:58;;;;;;;15.40;4.10;;;18.80;99.90;;;;;;5119505;28;20466;-78
2023/10/06 11:14:29;;;;;;;18.63;5.72;;;18.90;99.90;;;;;;5126989;28;20058;-80
2023/10/06 11:17:07;;;;;;;16.10;4.05;;;19.00;99.90;;;;;;5128010;27;20169;-80
2023/10/06 11:19:34;;;;;;;15.25;4.00;;;19.10;99.90;;;;;;5127766;27;20750;-82
2023/10/06 11:22:13;;;;;;;14.60;3.80;;;19.20;99.90;;;;;;5127996;27;20036;-79
2023/10/06 11:24:40;;;;;;;16.95;4.00;;;19.30;99.90;;;;;;5126466;28;20059;-77
2023/10/06 11:27:17;;;;;;;16.55;4.05;;;19.30;99.90;;;;;;5127844;27;20042;-79
2023/10/06 11:29:46;;;;;;;17.73;4.53;;;19.30;99.90;;;;;;5127492;27;20055;-81
2023/10/06 11:32:12;;;;;;;14.05;3.38;;;19.40;99.90;;;;;;5126029;28;20044;-84
2023/10/06 11:34:41;;;;;;;16.30;3.88;;;19.40;99.90;;;;;;5126189;28;20050;-80
2023/10/06 11:37:08;;;;;;;20.33;3.85;;;19.40;99.90;;;;;;5126164;28;20043;-78
2023/10/06 11:39:34;;;;;;;14.93;3.63;;;19.40;99.90;;;;;;5126065;28;20127;-78
2023/10/06 11:42:22;;;;;;;18.27;4.50;;;19.40;99.90;;;;;;5125853;28;20047;-77
2023/10/06 11:44:48;;;;;;;19.05;3.95;;;19.30;99.90;;;;;;5108653;28;20032;-78
2023/10/06 11:47:13;;;;;;;15.63;3.13;;;19.20;99.90;;;;;;5125982;28;20065;-79
2023/10/06 11:49:59;;;;;;;14.60;3.10;;;19.30;99.90;;;;;;5126164;28;20142;-80
2023/10/06 11:52:25;;;;;;;16.77;3.65;;;19.40;99.90;;;;;;5100442;28;20047;-79
2023/10/06 11:54:51;;;;;;;20.20;3.67;;;19.40;99.90;;;;;;5127629;27;20055;-79
2023/10/06 11:57:19;;;;;;;17.05;3.85;;;19.50;99.90;;;;;;5125790;28;20051;-80
2023/10/06 11:59:51;;;;;;;19.75;3.08;;;19.80;99.90;;;;;;5125858;28;20197;-80
2023/10/06 12:02:17;;;;;;;19.45;3.50;;;20.00;99.90;;;;;;5127356;27;20055;-78
2023/10/06 12:04:44;;;;;;;15.60;3.20;;;20.10;99.90;;;;;;5127383;27;20035;-77
2023/10/06 12:07:37;;;;;;;15.50;3.33;;;20.00;99.90;;;;;;5126074;28;20055;-79
2023/10/06 12:10:03;;;;;;;14.43;2.80;;;20.00;99.90;;;;;;5119791;28;20063;-78
2023/10/06 12:12:29;;;;;;;16.15;3.40;;;20.00;99.90;;;;;;5114512;27;20116;-79
2023/10/06 12:14:56;;;;;;;13.93;3.33;;;20.00;99.90;;;;;;5112960;28;20484;-77
2023/10/06 12:17:23;;;;;;;13.18;3.05;;;19.90;99.90;;;;;;5094801;28;20249;-79
2023/10/06 12:19:49;;;;;;;11.20;2.92;;;20.00;99.90;;;;;;5111496;28;20479;-77
2023/10/06 12:22:16;;;;;;;11.15;2.95;;;20.10;99.90;;;;;;5111987;28;20130;-79
2023/10/06 12:24:42;;;;;;;22.77;4.53;;;20.20;99.90;;;;;;5111629;28;20058;-78
2023/10/06 12:27:09;;;;;;;22.25;3.67;;;20.30;99.90;;;;;;5113176;28;20036;-78
2023/10/06 12:29:35;;;;;;;16.75;3.03;;;20.50;99.90;;;;;;5111702;28;20059;-77
2023/10/06 12:32:01;;;;;;;13.88;2.95;;;20.50;99.90;;;;;;5111649;28;20040;-79
2023/10/06 12:34:29;;;;;;;14.98;2.90;;;20.40;99.90;;;;;;5111748;28;20181;-77
2023/10/06 12:37:01;;;;;;;19.42;2.88;;;20.30;99.90;;;;;;5111710;28;20043;-78
2023/10/06 12:39:34;;;;;;;15.30;3.15;;;20.20;99.90;;;;;;5112687;28;20048;-79
2023/10/06 12:42:00;;;;;;;15.93;3.58;;;20.10;99.90;;;;;;5112973;27;20044;-78
2023/10/06 12:44:27;;;;;;;17.67;3.38;;;20.10;99.90;;;;;;5112997;28;20121;-79
2023/10/06 12:47:03;;;;;;;15.15;3.03;;;20.00;99.90;;;;;;5111680;28;20051;-80
2023/10/06 12:49:30;;;;;;;20.10;3.13;;;20.00;99.90;;;;;;5104629;28;20047;-78
2023/10/06 12:51:56;;;;;;;14.50;2.83;;;19.90;99.90;;;;;;5094421;28;20032;-80
2023/10/06 12:54:25;;;;;;;14.02;3.00;;;19.90;99.90;;;;;;5113028;28;20047;-80
2023/10/06 12:56:51;;;;;;;12.48;2.88;;;19.80;99.90;;;;;;5111307;28;20035;-80
2023/10/06 12:59:17;;;;;;;17.58;3.10;;;19.80;99.90;;;;;;5112382;28;20056;-79
2023/10/06 13:01:43;;;;;;;11.50;2.72;;;19.70;99.90;;;;;;5112163;28;20047;-76
2023/10/06 13:04:13;;;;;;;21.65;3.10;;;19.70;99.90;;;;;;5112270;28;20050;-78
2023/10/06 13:06:39;;;;;;;16.60;3.60;;;19.60;99.90;;;;;;5102538;28;20044;-78
2023/10/06 13:09:04;;;;;;;17.73;4.30;;;19.60;99.90;;;;;;5112031;28;20343;-80
2023/10/06 13:11:30;;;;;;;15.23;3.33;;;19.60;99.90;;;;;;5110609;28;20051;-78